KRME/RME METAR and TAF weather

Enter ICAO airport designator
Station Type Date Time Source
KRME METAR 2019/02/20 16:53 UTC NOAA

KRME 201653Z 12008KT 10SM BKN120 M05/M11 A3045 RMK AO2 SLP319 T10501106


Station Type Date Time Source
KRME Decoded METAR 2019/02/20 16:53 UTC NOAA

GRIFFISS AIRFIELD, NY, United States (KRME) 43-14N 075-24W
Feb 20, 2019 - 11:53 AM EST / 2019.02.20 1653 UTC
Wind: from the ESE (120 degrees) at 9 MPH (8 KT):0
Visibility: 10 mile(s):0
Sky conditions: mostly cloudy
Temperature: 23.0 F (-5.0 C)
Windchill: 14 F (-10 C):1
Dew Point: 12.9 F (-10.6 C)
Relative Humidity: 64%
Pressure (altimeter): 30.45 in. Hg (1031 hPa)
ob: KRME 201653Z 12008KT 10SM BKN120 M05/M11 A3045 RMK AO2 SLP319 T10501106
cycle: 17

Station Type Date Time Source
KRME TAF 2019/02/20 18:30 UTC NOAA

TAF KRME 201727Z 2018/2118 11007KT P6SM BKN050
FM202100 11009KT 2SM -SN OVC025
TEMPO 2021/2024 3/4SM -SN OVC015
FM210000 14007KT 4SM -FZRAPL OVC015 WS020/21035KT
FM210300 13012KT 3SM -FZRA OVC009 WS020/21035KT
FM210900 20006KT P6SM OVC009
FM211500 28010G20KT P6SM OVC015


Example: see airport list